sensor_id;sensor_type;location;lat;lon;timestamp;temperature;humidity
29007;DHT22;16104;48.642;9.008;2022-07-22T01:03:37;22.00;52.60
29007;DHT22;16104;48.642;9.008;2022-07-22T01:08:33;21.90;53.00
29007;DHT22;16104;48.642;9.008;2022-07-22T01:13:28;21.80;53.10
29007;DHT22;16104;48.642;9.008;2022-07-22T02:04:12;21.20;54.60
29007;DHT22;16104;48.642;9.008;2022-07-22T02:09:08;21.20;54.70
29007;DHT22;16104;48.642;9.008;2022-07-22T02:14:03;21.10;54.90
29007;DHT22;16104;48.642;9.008;2022-07-22T03:04:47;20.60;55.50
29007;DHT22;16104;48.642;9.008;2022-07-22T03:09:43;20.60;56.00
29007;DHT22;16104;48.642;9.008;2022-07-22T03:14:40;20.50;55.90
29007;DHT22;16104;48.642;9.008;2022-07-22T03:19:36;20.40;56.00
29007;DHT22;16104;48.642;9.008;2022-07-22T03:24:31;20.40;56.30
29007;DHT22;16104;48.642;9.008;2022-07-22T03:29:27;20.30;56.20
29007;DHT22;16104;48.642;9.008;2022-07-22T03:34:22;20.30;56.50
29007;DHT22;16104;48.642;9.008;2022-07-22T03:39:18;20.20;56.60
29007;DHT22;16104;48.642;9.008;2022-07-22T03:44:13;20.20;56.80
29007;DHT22;16104;48.642;9.008;2022-07-22T03:49:09;20.10;57.20
29007;DHT22;16104;48.642;9.008;2022-07-22T03:54:04;20.10;57.00
29007;DHT22;16104;48.642;9.008;2022-07-22T03:59:01;20.00;57.30
29007;DHT22;16104;48.642;9.008;2022-07-22T04:03:56;20.00;57.60
29007;DHT22;16104;48.642;9.008;2022-07-22T04:08:52;20.00;58.00
29007;DHT22;16104;48.642;9.008;2022-07-22T04:13:47;20.00;57.90
29007;DHT22;16104;48.642;9.008;2022-07-22T04:18:43;19.90;58.00
29007;DHT22;16104;48.642;9.008;2022-07-22T04:23:38;19.90;57.90
29007;DHT22;16104;48.642;9.008;2022-07-22T04:28:34;19.90;58.10
29007;DHT22;16104;48.642;9.008;2022-07-22T04:33:30;19.90;58.10
29007;DHT22;16104;48.642;9.008;2022-07-22T04:38:26;19.90;58.20
29007;DHT22;16104;48.642;9.008;2022-07-22T04:43:22;19.90;58.50
29007;DHT22;16104;48.642;9.008;2022-07-22T04:48:17;19.90;58.80
29007;DHT22;16104;48.642;9.008;2022-07-22T04:53:13;20.00;59.00
29007;DHT22;16104;48.642;9.008;2022-07-22T04:58:09;20.00;58.70
29007;DHT22;16104;48.642;9.008;2022-07-22T05:03:04;20.00;58.90
29007;DHT22;16104;48.642;9.008;2022-07-22T05:08:00;20.00;59.30
29007;DHT22;16104;48.642;9.008;2022-07-22T05:12:55;20.00;59.10
29007;DHT22;16104;48.642;9.008;2022-07-22T05:17:51;20.10;59.60
29007;DHT22;16104;48.642;9.008;2022-07-22T05:22:46;20.10;59.40
29007;DHT22;16104;48.642;9.008;2022-07-22T05:27:52;20.20;59.40
29007;DHT22;16104;48.642;9.008;2022-07-22T05:32:48;20.30;60.20
29007;DHT22;16104;48.642;9.008;2022-07-22T05:37:43;20.30;59.70
29007;DHT22;16104;48.642;9.008;2022-07-22T05:42:39;20.40;59.80
29007;DHT22;16104;48.642;9.008;2022-07-22T05:47:34;20.50;59.90
29007;DHT22;16104;48.642;9.008;2022-07-22T05:52:30;20.60;60.00
29007;DHT22;16104;48.642;9.008;2022-07-22T05:57:26;20.60;60.00
29007;DHT22;16104;48.642;9.008;2022-07-22T06:02:21;20.70;59.60
29007;DHT22;16104;48.642;9.008;2022-07-22T06:07:17;20.80;60.00
29007;DHT22;16104;48.642;9.008;2022-07-22T06:12:12;21.00;60.10
29007;DHT22;16104;48.642;9.008;2022-07-22T06:17:08;21.10;59.90
29007;DHT22;16104;48.642;9.008;2022-07-22T06:22:03;21.20;59.70
29007;DHT22;16104;48.642;9.008;2022-07-22T06:26:59;21.30;59.70
29007;DHT22;16104;48.642;9.008;2022-07-22T06:31:54;21.50;59.70
29007;DHT22;16104;48.642;9.008;2022-07-22T06:36:50;21.60;59.80
29007;DHT22;16104;48.642;9.008;2022-07-22T06:41:46;21.80;59.60
29007;DHT22;16104;48.642;9.008;2022-07-22T06:46:41;21.90;59.60
29007;DHT22;16104;48.642;9.008;2022-07-22T06:51:37;22.10;59.30
29007;DHT22;16104;48.642;9.008;2022-07-22T06:56:32;22.20;59.30
29007;DHT22;16104;48.642;9.008;2022-07-22T07:01:28;22.40;59.30
29007;DHT22;16104;48.642;9.008;2022-07-22T07:06:24;22.60;58.90
29007;DHT22;16104;48.642;9.008;2022-07-22T07:11:19;22.80;58.50
29007;DHT22;16104;48.642;9.008;2022-07-22T07:16:15;23.00;58.30
29007;DHT22;16104;48.642;9.008;2022-07-22T07:21:10;23.20;58.20
29007;DHT22;16104;48.642;9.008;2022-07-22T07:26:06;23.40;57.60
29007;DHT22;16104;48.642;9.008;2022-07-22T07:31:02;23.60;57.40
29007;DHT22;16104;48.642;9.008;2022-07-22T07:35:57;23.80;57.30
29007;DHT22;16104;48.642;9.008;2022-07-22T07:40:53;24.00;56.80
29007;DHT22;16104;48.642;9.008;2022-07-22T07:45:48;24.20;56.50
29007;DHT22;16104;48.642;9.008;2022-07-22T07:50:44;24.50;56.20
29007;DHT22;16104;48.642;9.008;2022-07-22T07:55:40;24.70;55.90
29007;DHT22;16104;48.642;9.008;2022-07-22T08:00:36;24.90;55.40
29007;DHT22;16104;48.642;9.008;2022-07-22T08:05:32;25.10;55.40
29007;DHT22;16104;48.642;9.008;2022-07-22T08:10:28;25.30;54.90
29007;DHT22;16104;48.642;9.008;2022-07-22T08:15:25;25.60;54.70
29007;DHT22;16104;48.642;9.008;2022-07-22T08:20:21;25.80;54.10
29007;DHT22;16104;48.642;9.008;2022-07-22T08:25:17;26.10;53.70
29007;DHT22;16104;48.642;9.008;2022-07-22T08:30:13;26.40;53.70
29007;DHT22;16104;48.642;9.008;2022-07-22T08:35:09;26.60;52.90
29007;DHT22;16104;48.642;9.008;2022-07-22T08:40:06;26.90;52.70
29007;DHT22;16104;48.642;9.008;2022-07-22T08:45:02;27.10;52.50
29007;DHT22;16104;48.642;9.008;2022-07-22T08:49:58;27.40;52.20
29007;DHT22;16104;48.642;9.008;2022-07-22T08:54:54;27.70;51.00
29007;DHT22;16104;48.642;9.008;2022-07-22T08:59:52;27.90;50.60
29007;DHT22;16104;48.642;9.008;2022-07-22T09:05:08;28.20;49.80
29007;DHT22;16104;48.642;9.008;2022-07-22T09:10:06;28.40;48.80
29007;DHT22;16104;48.642;9.008;2022-07-22T09:15:03;28.60;49.40
29007;DHT22;16104;48.642;9.008;2022-07-22T09:19:59;28.80;50.00
29007;DHT22;16104;48.642;9.008;2022-07-22T09:24:55;29.10;48.10
29007;DHT22;16104;48.642;9.008;2022-07-22T09:29:51;29.30;47.90
29007;DHT22;16104;48.642;9.008;2022-07-22T09:34:46;29.50;47.60
29007;DHT22;16104;48.642;9.008;2022-07-22T09:39:42;29.70;47.00
29007;DHT22;16104;48.642;9.008;2022-07-22T09:44:37;29.90;46.70
29007;DHT22;16104;48.642;9.008;2022-07-22T09:49:37;30.20;46.20
29007;DHT22;16104;48.642;9.008;2022-07-22T09:54:35;30.50;45.80
29007;DHT22;16104;48.642;9.008;2022-07-22T09:59:30;30.70;45.30
29007;DHT22;16104;48.642;9.008;2022-07-22T10:04:31;30.90;45.20
29007;DHT22;16104;48.642;9.008;2022-07-22T10:09:29;31.20;44.00
29007;DHT22;16104;48.642;9.008;2022-07-22T10:14:26;31.40;44.10
29007;DHT22;16104;48.642;9.008;2022-07-22T10:19:22;31.60;43.60
29007;DHT22;16104;48.642;9.008;2022-07-22T10:24:18;31.80;43.50
29007;DHT22;16104;48.642;9.008;2022-07-22T10:29:43;32.00;43.70
29007;DHT22;16104;48.642;9.008;2022-07-22T10:40:12;32.40;41.70
29007;DHT22;16104;48.642;9.008;2022-07-22T10:45:08;32.70;41.20
29007;DHT22;16104;48.642;9.008;2022-07-22T10:55:27;33.10;40.70
29007;DHT22;16104;48.642;9.008;2022-07-22T11:00:23;33.30;41.60
29007;DHT22;16104;48.642;9.008;2022-07-22T11:05:26;33.60;41.20
29007;DHT22;16104;48.642;9.008;2022-07-22T11:10:22;33.80;38.80
29007;DHT22;16104;48.642;9.008;2022-07-22T11:15:18;34.00;38.60
29007;DHT22;16104;48.642;9.008;2022-07-22T11:20:13;34.20;38.70
29007;DHT22;16104;48.642;9.008;2022-07-22T11:25:10;34.40;39.60
29007;DHT22;16104;48.642;9.008;2022-07-22T11:30:06;34.60;38.10
29007;DHT22;16104;48.642;9.008;2022-07-22T11:35:02;34.80;38.10
29007;DHT22;16104;48.642;9.008;2022-07-22T11:40:04;35.00;36.70
29007;DHT22;16104;48.642;9.008;2022-07-22T11:45:01;35.20;36.30
29007;DHT22;16104;48.642;9.008;2022-07-22T11:49:56;35.40;36.00
29007;DHT22;16104;48.642;9.008;2022-07-22T11:54:52;35.60;36.50
29007;DHT22;16104;48.642;9.008;2022-07-22T11:59:48;35.80;35.20
29007;DHT22;16104;48.642;9.008;2022-07-22T12:04:46;35.90;34.60
29007;DHT22;16104;48.642;9.008;2022-07-22T12:09:42;36.10;34.40
29007;DHT22;16104;48.642;9.008;2022-07-22T12:14:45;36.30;35.30
29007;DHT22;16104;48.642;9.008;2022-07-22T12:19:41;36.60;33.40
29007;DHT22;16104;48.642;9.008;2022-07-22T12:24:42;36.90;33.60
29007;DHT22;16104;48.642;9.008;2022-07-22T12:34:39;37.40;33.00
29007;DHT22;16104;48.642;9.008;2022-07-22T12:39:35;37.60;31.30
29007;DHT22;16104;48.642;9.008;2022-07-22T12:44:31;37.80;31.70
29007;DHT22;16104;48.642;9.008;2022-07-22T12:49:26;38.00;31.50
29007;DHT22;16104;48.642;9.008;2022-07-22T12:54:21;38.20;31.80
29007;DHT22;16104;48.642;9.008;2022-07-22T12:59:17;38.40;30.60
29007;DHT22;16104;48.642;9.008;2022-07-22T13:04:12;38.50;30.60
29007;DHT22;16104;48.642;9.008;2022-07-22T13:09:08;38.60;30.50
29007;DHT22;16104;48.642;9.008;2022-07-22T13:14:03;38.70;29.90
29007;DHT22;16104;48.642;9.008;2022-07-22T13:18:59;38.90;30.20
29007;DHT22;16104;48.642;9.008;2022-07-22T13:23:54;39.00;28.90
29007;DHT22;16104;48.642;9.008;2022-07-22T13:28:50;39.20;29.70
29007;DHT22;16104;48.642;9.008;2022-07-22T13:33:45;39.30;29.20
29007;DHT22;16104;48.642;9.008;2022-07-22T13:38:41;39.40;28.70
29007;DHT22;16104;48.642;9.008;2022-07-22T13:43:36;39.60;28.80
29007;DHT22;16104;48.642;9.008;2022-07-22T13:48:32;39.80;28.00
29007;DHT22;16104;48.642;9.008;2022-07-22T13:53:27;39.90;28.00
29007;DHT22;16104;48.642;9.008;2022-07-22T13:58:23;40.00;28.50
29007;DHT22;16104;48.642;9.008;2022-07-22T14:03:18;40.10;28.00
29007;DHT22;16104;48.642;9.008;2022-07-22T14:08:14;40.10;28.30
29007;DHT22;16104;48.642;9.008;2022-07-22T14:13:10;40.10;27.50
29007;DHT22;16104;48.642;9.008;2022-07-22T14:18:06;40.10;27.80
29007;DHT22;16104;48.642;9.008;2022-07-22T14:23:03;40.20;27.40
29007;DHT22;16104;48.642;9.008;2022-07-22T14:28:00;40.30;27.40
29007;DHT22;16104;48.642;9.008;2022-07-22T14:32:55;40.30;27.60
29007;DHT22;16104;48.642;9.008;2022-07-22T14:37:51;40.40;26.90
29007;DHT22;16104;48.642;9.008;2022-07-22T14:42:46;40.40;26.70
29007;DHT22;16104;48.642;9.008;2022-07-22T14:47:43;40.40;26.60
29007;DHT22;16104;48.642;9.008;2022-07-22T14:52:39;40.40;27.10
29007;DHT22;16104;48.642;9.008;2022-07-22T14:57:34;40.40;26.80
29007;DHT22;16104;48.642;9.008;2022-07-22T15:02:30;40.40;26.90
29007;DHT22;16104;48.642;9.008;2022-07-22T15:07:26;40.50;26.40
29007;DHT22;16104;48.642;9.008;2022-07-22T15:12:21;40.50;26.70
29007;DHT22;16104;48.642;9.008;2022-07-22T15:17:17;40.50;27.30
29007;DHT22;16104;48.642;9.008;2022-07-22T15:22:12;40.40;26.20
29007;DHT22;16104;48.642;9.008;2022-07-22T15:27:08;40.30;26.00
29007;DHT22;16104;48.642;9.008;2022-07-22T15:32:03;40.30;26.10
29007;DHT22;16104;48.642;9.008;2022-07-22T15:36:59;40.10;25.90
29007;DHT22;16104;48.642;9.008;2022-07-22T15:41:54;40.00;26.30
29007;DHT22;16104;48.642;9.008;2022-07-22T15:46:50;39.90;26.10
29007;DHT22;16104;48.642;9.008;2022-07-22T15:51:46;39.80;26.30
29007;DHT22;16104;48.642;9.008;2022-07-22T15:56:41;39.70;26.10
29007;DHT22;16104;48.642;9.008;2022-07-22T16:01:37;39.60;26.30
29007;DHT22;16104;48.642;9.008;2022-07-22T16:06:33;39.50;26.70
29007;DHT22;16104;48.642;9.008;2022-07-22T16:11:28;39.40;26.30
29007;DHT22;16104;48.642;9.008;2022-07-22T16:16:24;39.10;26.60
29007;DHT22;16104;48.642;9.008;2022-07-22T16:21:19;38.90;26.70
29007;DHT22;16104;48.642;9.008;2022-07-22T16:26:15;38.70;26.70
29007;DHT22;16104;48.642;9.008;2022-07-22T16:31:12;38.50;27.10
29007;DHT22;16104;48.642;9.008;2022-07-22T16:36:07;38.40;27.10
29007;DHT22;16104;48.642;9.008;2022-07-22T16:41:03;38.30;27.10
29007;DHT22;16104;48.642;9.008;2022-07-22T16:45:59;38.30;27.60
29007;DHT22;16104;48.642;9.008;2022-07-22T16:50:55;38.20;27.70
29007;DHT22;16104;48.642;9.008;2022-07-22T16:55:51;38.20;27.20
29007;DHT22;16104;48.642;9.008;2022-07-22T17:00:47;38.10;27.40
29007;DHT22;16104;48.642;9.008;2022-07-22T17:05:42;38.00;27.30
29007;DHT22;16104;48.642;9.008;2022-07-22T17:10:38;38.00;27.40
29007;DHT22;16104;48.642;9.008;2022-07-22T17:15:33;37.90;27.20
29007;DHT22;16104;48.642;9.008;2022-07-22T17:20:29;37.70;27.40
29007;DHT22;16104;48.642;9.008;2022-07-22T17:25:24;37.60;27.60
29007;DHT22;16104;48.642;9.008;2022-07-22T17:30:20;37.60;27.50
29007;DHT22;16104;48.642;9.008;2022-07-22T17:35:16;37.50;28.50
29007;DHT22;16104;48.642;9.008;2022-07-22T17:40:12;37.50;27.90
29007;DHT22;16104;48.642;9.008;2022-07-22T17:45:09;37.20;27.90
29007;DHT22;16104;48.642;9.008;2022-07-22T17:50:05;36.80;27.70
29007;DHT22;16104;48.642;9.008;2022-07-22T17:55:02;36.40;27.80
29007;DHT22;16104;48.642;9.008;2022-07-22T17:59:57;35.90;28.10
29007;DHT22;16104;48.642;9.008;2022-07-22T18:04:53;35.40;28.40
29007;DHT22;16104;48.642;9.008;2022-07-22T18:09:49;34.90;28.70
29007;DHT22;16104;48.642;9.008;2022-07-22T18:14:44;34.50;29.60
29007;DHT22;16104;48.642;9.008;2022-07-22T18:19:40;34.10;29.50
29007;DHT22;16104;48.642;9.008;2022-07-22T18:24:35;33.70;30.00
29007;DHT22;16104;48.642;9.008;2022-07-22T18:29:31;33.30;30.30
29007;DHT22;16104;48.642;9.008;2022-07-22T18:34:27;32.90;30.80
29007;DHT22;16104;48.642;9.008;2022-07-22T18:39:24;32.70;31.40
29007;DHT22;16104;48.642;9.008;2022-07-22T18:44:20;32.40;31.80
29007;DHT22;16104;48.642;9.008;2022-07-22T18:49:15;32.20;32.20
29007;DHT22;16104;48.642;9.008;2022-07-22T18:54:11;32.00;32.70
29007;DHT22;16104;48.642;9.008;2022-07-22T18:59:06;31.80;33.10
29007;DHT22;16104;48.642;9.008;2022-07-22T19:04:02;31.60;33.30
29007;DHT22;16104;48.642;9.008;2022-07-22T19:08:58;31.40;33.60
29007;DHT22;16104;48.642;9.008;2022-07-22T19:13:53;31.20;34.00
29007;DHT22;16104;48.642;9.008;2022-07-22T19:18:49;31.00;34.30
29007;DHT22;16104;48.642;9.008;2022-07-22T19:23:44;30.90;34.60
29007;DHT22;16104;48.642;9.008;2022-07-22T19:28:41;30.70;34.90
29007;DHT22;16104;48.642;9.008;2022-07-22T19:33:38;30.50;35.40
29007;DHT22;16104;48.642;9.008;2022-07-22T19:38:33;30.50;35.90
29007;DHT22;16104;48.642;9.008;2022-07-22T19:43:29;30.30;35.90
29007;DHT22;16104;48.642;9.008;2022-07-22T19:48:25;30.20;36.10
29007;DHT22;16104;48.642;9.008;2022-07-22T19:53:20;30.10;36.50
29007;DHT22;16104;48.642;9.008;2022-07-22T19:58:16;30.10;37.00
29007;DHT22;16104;48.642;9.008;2022-07-22T20:03:12;30.00;37.20
29007;DHT22;16104;48.642;9.008;2022-07-22T20:08:07;29.90;37.30
29007;DHT22;16104;48.642;9.008;2022-07-22T20:13:03;29.70;37.60
29007;DHT22;16104;48.642;9.008;2022-07-22T20:17:58;29.60;38.20
29007;DHT22;16104;48.642;9.008;2022-07-22T20:22:54;29.50;38.30
29007;DHT22;16104;48.642;9.008;2022-07-22T20:27:49;29.30;38.50
29007;DHT22;16104;48.642;9.008;2022-07-22T20:32:45;29.20;38.90
29007;DHT22;16104;48.642;9.008;2022-07-22T20:37:40;29.10;39.10
29007;DHT22;16104;48.642;9.008;2022-07-22T20:42:36;29.00;39.30
29007;DHT22;16104;48.642;9.008;2022-07-22T20:47:31;28.90;39.60
29007;DHT22;16104;48.642;9.008;2022-07-22T20:52:27;28.90;39.70
29007;DHT22;16104;48.642;9.008;2022-07-22T20:57:22;28.80;40.00
29007;DHT22;16104;48.642;9.008;2022-07-22T21:02:18;28.70;39.90
29007;DHT22;16104;48.642;9.008;2022-07-22T21:07:13;28.70;40.80
29007;DHT22;16104;48.642;9.008;2022-07-22T21:12:09;28.60;40.80
29007;DHT22;16104;48.642;9.008;2022-07-22T21:17:04;28.50;41.30
29007;DHT22;16104;48.642;9.008;2022-07-22T21:22:00;28.40;41.70
29007;DHT22;16104;48.642;9.008;2022-07-22T21:26:56;28.40;42.30
29007;DHT22;16104;48.642;9.008;2022-07-22T21:31:51;28.30;42.30
29007;DHT22;16104;48.642;9.008;2022-07-22T21:36:48;28.10;42.30
29007;DHT22;16104;48.642;9.008;2022-07-22T21:41:43;27.90;42.30
29007;DHT22;16104;48.642;9.008;2022-07-22T21:46:39;27.80;42.80
29007;DHT22;16104;48.642;9.008;2022-07-22T21:51:34;27.70;43.10
29007;DHT22;16104;48.642;9.008;2022-07-22T21:56:30;27.60;43.30
29007;DHT22;16104;48.642;9.008;2022-07-22T22:01:44;27.60;44.80
29007;DHT22;16104;48.642;9.008;2022-07-22T22:06:41;27.60;45.60
29007;DHT22;16104;48.642;9.008;2022-07-22T22:11:36;27.50;46.10
29007;DHT22;16104;48.642;9.008;2022-07-22T22:16:32;27.40;45.10
29007;DHT22;16104;48.642;9.008;2022-07-22T22:21:27;27.40;45.10
29007;DHT22;16104;48.642;9.008;2022-07-22T22:26:23;27.30;45.10
29007;DHT22;16104;48.642;9.008;2022-07-22T22:31:19;27.30;45.30
29007;DHT22;16104;48.642;9.008;2022-07-22T22:36:15;27.20;44.70
29007;DHT22;16104;48.642;9.008;2022-07-22T22:41:11;27.20;44.80
29007;DHT22;16104;48.642;9.008;2022-07-22T22:46:06;27.10;44.40
29007;DHT22;16104;48.642;9.008;2022-07-22T22:51:02;27.10;44.40
29007;DHT22;16104;48.642;9.008;2022-07-22T22:55:57;27.10;44.70
29007;DHT22;16104;48.642;9.008;2022-07-22T23:00:55;27.10;45.00
29007;DHT22;16104;48.642;9.008;2022-07-22T23:05:51;27.00;44.60
29007;DHT22;16104;48.642;9.008;2022-07-22T23:10:47;26.90;44.60
29007;DHT22;16104;48.642;9.008;2022-07-22T23:15:43;26.90;44.10
29007;DHT22;16104;48.642;9.008;2022-07-22T23:20:38;26.90;44.30
29007;DHT22;16104;48.642;9.008;2022-07-22T23:25:43;26.80;44.60
29007;DHT22;16104;48.642;9.008;2022-07-22T23:30:38;26.70;44.60
29007;DHT22;16104;48.642;9.008;2022-07-22T23:35:34;26.60;44.90
29007;DHT22;16104;48.642;9.008;2022-07-22T23:40:30;26.50;45.30
29007;DHT22;16104;48.642;9.008;2022-07-22T23:45:26;26.40;45.80
29007;DHT22;16104;48.642;9.008;2022-07-22T23:50:22;26.20;46.00
29007;DHT22;16104;48.642;9.008;2022-07-22T23:55:18;26.10;46.00
